Time;durP1;ratioP1;P1;durP2;ratioP2;P2;SDS_P1;SDS_P2;PMS_P1;PMS_P2;Temp;Humidity;BMP_temperature;BMP_pressure;BME280_temperature;BME280_humidity;BME280_pressure;Samples;Min_cycle;Max_cycle;Signal;HPM_P1;HPM_P2
2021/12/25 00:00:22;;;;;;;0.52;0.52;;;8.90;99.90;;;;;;5035536;28;20037;-81
2021/12/25 00:02:48;;;;;;;0.38;0.38;;;8.90;99.90;;;;;;5034623;28;20022;-80
2021/12/25 00:05:14;;;;;;;3.00;0.82;;;8.90;99.90;;;;;;5034630;28;20025;-85
2021/12/25 00:07:40;;;;;;;0.03;0.03;;;8.80;99.90;;;;;;5035321;28;20021;-83
2021/12/25 00:10:07;;;;;;;0.20;0.20;;;8.80;99.90;;;;;;5034999;28;20037;-82
2021/12/25 00:12:33;;;;;;;0.75;0.38;;;8.80;99.90;;;;;;5035169;28;20504;-81
2021/12/25 00:14:59;;;;;;;0.13;0.13;;;8.80;99.90;;;;;;5033773;28;20037;-81
2021/12/25 00:17:26;;;;;;;0.82;0.73;;;8.80;99.90;;;;;;5035141;28;20026;-80
2021/12/25 00:19:53;;;;;;;0.00;0.00;;;8.80;99.90;;;;;;5033554;28;20132;-79
2021/12/25 00:22:19;;;;;;;1.13;0.55;;;8.80;99.90;;;;;;5034882;28;20026;-80
2021/12/25 00:24:45;;;;;;;1.05;0.95;;;8.80;99.90;;;;;;5034997;28;20045;-80
2021/12/25 00:30:12;;;;;;;3.83;1.02;;;8.70;99.90;;;;;;5034117;28;20032;-81
2021/12/25 00:32:57;;;;;;;1.77;1.00;;;8.70;99.90;;;;;;5034608;28;20021;-82
2021/12/25 00:35:23;;;;;;;0.65;0.65;;;8.70;99.90;;;;;;5033150;28;20030;-83
2021/12/25 00:37:49;;;;;;;0.03;0.03;;;8.70;99.90;;;;;;5034882;28;20033;-81
2021/12/25 00:40:15;;;;;;;3.85;1.15;;;8.70;99.90;;;;;;5034632;28;20029;-78
2021/12/25 00:42:40;;;;;;;3.50;0.68;;;8.70;99.90;;;;;;5019321;28;20022;-78
2021/12/25 00:45:06;;;;;;;0.95;0.95;;;8.70;99.90;;;;;;5014637;28;20161;-85
2021/12/25 00:47:32;;;;;;;0.85;0.40;;;8.70;99.90;;;;;;5024938;28;20033;-85
2021/12/25 00:49:59;;;;;;;1.05;1.05;;;8.70;99.90;;;;;;5016347;28;20032;-85
2021/12/25 00:52:24;;;;;;;1.45;1.35;;;8.70;99.90;;;;;;5034369;28;20032;-79
2021/12/25 00:54:50;;;;;;;0.65;0.65;;;8.70;99.90;;;;;;5034318;28;20030;-79
2021/12/25 00:57:19;;;;;;;0.98;0.60;;;8.70;99.90;;;;;;5034144;28;20104;-84
2021/12/25 00:59:45;;;;;;;0.85;0.85;;;8.70;99.90;;;;;;5034313;28;20149;-79
2021/12/25 01:02:10;;;;;;;0.75;0.75;;;8.80;99.90;;;;;;5034274;28;20100;-84
2021/12/25 01:04:36;;;;;;;0.30;0.30;;;8.80;99.90;;;;;;5032778;28;20400;-83
2021/12/25 01:07:02;;;;;;;0.35;0.35;;;8.80;99.90;;;;;;5034119;28;20026;-79
2021/12/25 01:09:29;;;;;;;2.00;1.33;;;8.80;99.90;;;;;;5033793;28;20440;-79
2021/12/25 01:11:58;;;;;;;0.00;0.00;;;8.70;99.90;;;;;;5032616;28;20030;-85
2021/12/25 01:14:35;;;;;;;3.90;0.98;;;8.70;99.90;;;;;;5013775;28;20026;-85
2021/12/25 01:40:17;;;;;;;0.20;0.15;;;8.60;99.90;;;;;;5014139;28;20469;-86
2021/12/25 01:48:26;;;;;;;0.00;0.00;;;8.60;99.90;;;;;;5013343;28;20567;-81
2021/12/25 01:50:54;;;;;;;0.10;0.10;;;8.60;99.90;;;;;;5013320;28;20404;-84
2021/12/25 01:53:19;;;;;;;0.43;0.40;;;8.60;99.90;;;;;;5012471;28;20026;-82
2021/12/25 01:55:48;;;;;;;0.15;0.15;;;8.50;99.90;;;;;;5013793;28;20034;-84
2021/12/25 01:58:14;;;;;;;0.00;0.00;;;8.60;99.90;;;;;;5013429;28;20018;-82
2021/12/25 02:00:43;;;;;;;0.80;0.80;;;8.50;99.90;;;;;;5013394;28;20037;-82
2021/12/25 02:03:12;;;;;;;5.18;1.30;;;8.50;99.90;;;;;;5013253;28;20022;-83
2021/12/25 02:05:38;;;;;;;0.15;0.15;;;8.50;99.90;;;;;;5011966;28;20405;-83
2021/12/25 02:08:04;;;;;;;1.75;1.13;;;8.50;99.90;;;;;;5013401;28;20025;-84
2021/12/25 02:10:30;;;;;;;0.63;0.60;;;8.50;99.90;;;;;;5013065;28;20022;-81
2021/12/25 02:12:56;;;;;;;10.13;1.83;;;8.60;99.90;;;;;;5012988;28;20029;-80
2021/12/25 02:15:27;;;;;;;0.43;0.43;;;8.50;99.90;;;;;;5013157;28;20034;-84
2021/12/25 02:18:09;;;;;;;0.60;0.60;;;8.60;99.90;;;;;;5012926;28;20018;-84
2021/12/25 02:20:45;;;;;;;0.08;0.08;;;8.50;99.90;;;;;;5013201;28;20485;-84
2021/12/25 02:23:15;;;;;;;0.10;0.10;;;8.50;99.90;;;;;;5013152;28;20037;-85
2021/12/25 02:25:41;;;;;;;0.77;0.77;;;8.50;99.90;;;;;;5013332;28;20033;-86
2021/12/25 02:28:07;;;;;;;2.65;1.35;;;8.50;99.90;;;;;;5012546;28;20394;-86
2021/12/25 02:30:33;;;;;;;1.17;0.65;;;8.50;99.90;;;;;;5012980;28;20029;-81
2021/12/25 02:33:00;;;;;;;0.35;0.35;;;8.50;99.90;;;;;;5012759;28;20042;-84
2021/12/25 02:35:27;;;;;;;2.47;0.55;;;8.50;99.90;;;;;;5013011;28;20029;-81
2021/12/25 02:37:53;;;;;;;1.50;1.38;;;8.50;99.90;;;;;;5012703;28;20029;-81
2021/12/25 02:40:20;;;;;;;1.25;0.93;;;8.50;99.90;;;;;;5013111;28;20080;-81
2021/12/25 02:42:47;;;;;;;1.42;1.20;;;8.50;99.90;;;;;;5012837;28;20109;-86
2021/12/25 02:45:18;;;;;;;0.17;0.17;;;8.50;99.90;;;;;;5012721;28;20022;-81
2021/12/25 02:47:46;;;;;;;0.17;0.17;;;8.50;99.90;;;;;;5012894;28;20029;-81
2021/12/25 02:50:20;;;;;;;1.02;1.00;;;8.50;99.90;;;;;;5012178;28;20030;-81
2021/12/25 02:52:46;;;;;;;0.13;0.13;;;8.50;99.90;;;;;;5011874;28;20128;-81
2021/12/25 02:55:14;;;;;;;0.45;0.40;;;8.50;99.90;;;;;;5012500;28;20049;-87
2021/12/25 02:57:40;;;;;;;0.10;0.10;;;8.50;99.90;;;;;;5012522;28;20026;-86
2021/12/25 03:00:08;;;;;;;0.32;0.32;;;8.60;99.90;;;;;;5011750;28;20040;-86
2021/12/25 03:02:35;;;;;;;3.60;1.60;;;8.50;99.90;;;;;;5012572;28;20025;-81
2021/12/25 03:05:01;;;;;;;0.35;0.35;;;8.60;99.90;;;;;;5010953;28;20030;-81
2021/12/25 03:07:27;;;;;;;0.32;0.32;;;8.50;99.90;;;;;;5012832;28;20440;-87
2021/12/25 03:09:53;;;;;;;1.60;0.90;;;8.60;99.90;;;;;;5012630;28;20029;-87
2021/12/25 03:12:29;;;;;;;0.30;0.30;;;8.60;99.90;;;;;;5012605;28;20044;-86
2021/12/25 03:15:13;;;;;;;1.95;1.20;;;8.50;99.90;;;;;;5012650;28;20363;-86
2021/12/25 03:17:39;;;;;;;1.60;1.50;;;8.50;99.90;;;;;;5012083;28;20018;-82
2021/12/25 03:20:08;;;;;;;1.75;1.08;;;8.50;99.90;;;;;;5012450;28;20037;-81
2021/12/25 03:22:37;;;;;;;1.90;0.85;;;8.40;99.90;;;;;;5012585;28;20501;-87
2021/12/25 03:25:06;;;;;;;0.70;0.70;;;8.50;99.90;;;;;;5011210;28;20037;-87
2021/12/25 03:27:44;;;;;;;0.32;0.32;;;8.40;99.90;;;;;;5012441;28;20077;-81
2021/12/25 03:30:14;;;;;;;0.65;0.65;;;8.50;99.90;;;;;;5012269;28;20038;-81
2021/12/25 03:32:47;;;;;;;0.85;0.28;;;8.50;99.90;;;;;;5012505;28;20075;-86
2021/12/25 03:35:13;;;;;;;0.30;0.30;;;8.40;99.90;;;;;;5012378;28;20046;-86
2021/12/25 03:37:39;;;;;;;0.35;0.35;;;8.50;99.90;;;;;;5012429;28;20108;-86
2021/12/25 03:40:05;;;;;;;0.75;0.75;;;8.50;99.90;;;;;;5012526;28;20046;-87
2021/12/25 03:42:31;;;;;;;2.20;2.00;;;8.50;99.90;;;;;;5012008;28;20032;-87
2021/12/25 03:44:57;;;;;;;1.17;0.80;;;8.50;99.90;;;;;;5011993;28;20017;-81
2021/12/25 03:47:47;;;;;;;0.20;0.20;;;8.40;99.90;;;;;;5012196;28;20504;-86
2021/12/25 03:58:25;;;;;;;0.90;0.90;;;8.50;99.90;;;;;;5011913;28;20096;-84
2021/12/25 04:00:51;;;;;;;0.05;0.05;;;8.50;99.90;;;;;;5012167;28;20022;-86
2021/12/25 04:03:26;;;;;;;14.90;1.13;;;8.50;99.90;;;;;;5012023;28;20026;-84
2021/12/25 04:05:51;;;;;;;0.32;0.32;;;8.50;99.90;;;;;;5012737;28;20045;-84
2021/12/25 04:08:22;;;;;;;0.10;0.10;;;8.50;99.90;;;;;;5015562;28;20485;-86
2021/12/25 04:10:52;;;;;;;1.25;0.05;;;8.50;99.90;;;;;;5014738;28;20025;-80
2021/12/25 04:13:19;;;;;;;0.80;0.47;;;8.50;99.90;;;;;;5015091;28;20033;-84
2021/12/25 04:15:46;;;;;;;8.63;1.60;;;8.40;99.90;;;;;;5013147;28;20025;-85
2021/12/25 04:18:12;;;;;;;2.13;1.38;;;8.40;99.90;;;;;;5015206;28;20018;-85
2021/12/25 04:20:38;;;;;;;1.20;0.50;;;8.40;99.90;;;;;;5015396;28;20091;-80
2021/12/25 04:23:12;;;;;;;1.00;0.90;;;8.30;99.90;;;;;;5015269;28;20033;-80
2021/12/25 04:25:38;;;;;;;0.65;0.65;;;8.30;99.90;;;;;;5015180;28;20501;-86
2021/12/25 04:28:36;;;;;;;0.30;0.30;;;8.30;99.90;;;;;;5015018;28;20085;-86
2021/12/25 05:03:30;;;;;;;0.65;0.65;;;8.20;99.90;;;;;;5014532;28;20037;-80
2021/12/25 05:05:56;;;;;;;2.90;0.68;;;8.20;99.90;;;;;;5014366;28;20116;-84
2021/12/25 05:08:22;;;;;;;0.00;0.00;;;8.20;99.90;;;;;;5012923;28;20097;-80
2021/12/25 05:10:48;;;;;;;0.85;0.85;;;8.20;99.90;;;;;;5014385;28;20444;-82
2021/12/25 05:13:13;;;;;;;2.10;0.68;;;8.10;99.90;;;;;;5014211;28;20026;-82
2021/12/25 05:15:39;;;;;;;0.52;0.43;;;8.10;99.90;;;;;;5013686;28;20021;-81
2021/12/25 05:18:06;;;;;;;0.45;0.45;;;8.10;99.90;;;;;;5014012;28;20022;-81
2021/12/25 05:20:31;;;;;;;2.00;0.75;;;8.10;99.90;;;;;;5014267;28;20025;-81
2021/12/25 05:22:57;;;;;;;0.98;0.90;;;8.10;99.90;;;;;;5014073;28;20037;-81
2021/12/25 05:25:23;;;;;;;0.10;0.10;;;8.10;99.90;;;;;;5014003;28;20088;-80
2021/12/25 05:27:50;;;;;;;0.20;0.20;;;8.10;99.90;;;;;;5013889;28;20085;-80
2021/12/25 05:30:16;;;;;;;0.17;0.17;;;8.10;99.90;;;;;;5013921;28;20018;-80
2021/12/25 05:32:41;;;;;;;0.50;0.50;;;8.10;99.90;;;;;;5013939;28;20041;-80
2021/12/25 05:35:07;;;;;;;0.17;0.17;;;8.10;99.90;;;;;;5013740;28;20017;-80
2021/12/25 05:37:33;;;;;;;0.10;0.10;;;8.00;99.90;;;;;;5013938;28;20025;-80
2021/12/25 05:40:01;;;;;;;0.60;0.32;;;8.00;99.90;;;;;;5013796;28;20404;-81
2021/12/25 05:42:26;;;;;;;0.13;0.13;;;8.00;99.90;;;;;;5013492;28;20032;-82
2021/12/25 05:44:52;;;;;;;0.17;0.17;;;8.00;99.90;;;;;;5013648;28;20112;-80
2021/12/25 05:47:18;;;;;;;1.60;0.77;;;8.00;99.90;;;;;;5013547;28;20068;-81
2021/12/25 05:49:43;;;;;;;0.47;0.47;;;7.90;99.90;;;;;;5013089;28;20026;-80
2021/12/25 05:52:09;;;;;;;1.27;1.15;;;7.90;99.90;;;;;;5012108;28;20443;-80
2021/12/25 05:54:35;;;;;;;1.60;0.15;;;7.90;99.90;;;;;;5013616;28;20022;-80
2021/12/25 05:57:01;;;;;;;3.78;0.93;;;7.90;99.90;;;;;;5011858;28;20076;-81
2021/12/25 05:59:27;;;;;;;1.27;1.23;;;7.90;99.90;;;;;;5012993;28;20452;-81
2021/12/25 06:01:53;;;;;;;1.27;1.20;;;7.90;99.90;;;;;;5012243;28;20069;-81
2021/12/25 06:04:18;;;;;;;0.17;0.17;;;7.90;99.90;;;;;;5013438;28;20096;-80
2021/12/25 06:06:44;;;;;;;0.20;0.20;;;7.90;99.90;;;;;;5012802;28;20479;-81
2021/12/25 06:09:10;;;;;;;0.85;0.60;;;7.90;99.90;;;;;;5011819;28;20034;-82
2021/12/25 06:11:38;;;;;;;0.10;0.10;;;7.90;99.90;;;;;;5013347;28;20029;-82
2021/12/25 06:14:10;;;;;;;0.85;0.85;;;7.90;99.90;;;;;;5012922;28;20027;-81
2021/12/25 06:16:37;;;;;;;0.70;0.70;;;7.80;99.90;;;;;;5013016;28;20021;-81
2021/12/25 06:19:03;;;;;;;0.00;0.00;;;7.80;99.90;;;;;;5012704;28;20136;-81
2021/12/25 06:21:29;;;;;;;0.30;0.30;;;7.80;99.90;;;;;;5012863;28;20033;-82
2021/12/25 06:23:56;;;;;;;0.38;0.30;;;7.80;99.90;;;;;;5013180;28;20112;-82
2021/12/25 06:26:22;;;;;;;2.50;1.55;;;7.80;99.90;;;;;;5012727;28;20049;-82
2021/12/25 06:28:47;;;;;;;0.20;0.20;;;7.80;99.90;;;;;;5012228;28;20528;-83
2021/12/25 06:31:13;;;;;;;0.20;0.20;;;7.80;99.90;;;;;;5012150;28;20026;-81
2021/12/25 06:33:39;;;;;;;0.00;0.00;;;7.70;99.90;;;;;;5012785;28;20144;-82
2021/12/25 06:36:04;;;;;;;1.55;0.93;;;7.80;99.90;;;;;;5012530;28;20084;-82
2021/12/25 06:38:30;;;;;;;0.25;0.25;;;7.80;99.90;;;;;;5012958;28;20033;-83
2021/12/25 06:40:56;;;;;;;0.08;0.08;;;7.80;99.90;;;;;;5012804;28;20030;-83
2021/12/25 06:43:22;;;;;;;0.57;0.57;;;7.80;99.90;;;;;;5012533;28;20034;-81
2021/12/25 06:45:47;;;;;;;9.50;0.47;;;7.80;99.90;;;;;;5012874;28;20116;-82
2021/12/25 06:48:13;;;;;;;0.63;0.63;;;7.80;99.90;;;;;;5012491;28;20037;-83
2021/12/25 06:50:38;;;;;;;4.40;1.80;;;7.80;99.90;;;;;;5012071;28;20033;-84
2021/12/25 06:53:04;;;;;;;0.50;0.30;;;7.70;99.90;;;;;;5019823;28;20048;-84
2021/12/25 06:55:30;;;;;;;3.13;0.65;;;7.70;99.90;;;;;;5026702;28;20030;-84
2021/12/25 06:57:57;;;;;;;1.27;1.27;;;7.70;99.90;;;;;;5018469;28;20129;-82
2021/12/25 07:00:24;;;;;;;0.47;0.47;;;7.70;99.90;;;;;;5015291;28;20030;-83
2021/12/25 07:02:50;;;;;;;0.10;0.10;;;7.60;99.90;;;;;;5024542;28;20006;-84
2021/12/25 07:05:16;;;;;;;3.22;0.57;;;7.60;99.90;;;;;;5024147;28;20072;-85
2021/12/25 07:07:43;;;;;;;2.35;1.25;;;7.60;99.90;;;;;;5020683;28;20507;-85
2021/12/25 07:10:09;;;;;;;2.42;0.43;;;7.50;99.90;;;;;;5016700;28;20551;-81
2021/12/25 07:12:37;;;;;;;0.52;0.52;;;7.60;99.90;;;;;;5011926;28;20076;-85
2021/12/25 07:15:07;;;;;;;0.38;0.38;;;7.50;99.90;;;;;;5012931;28;20045;-86
2021/12/25 07:17:33;;;;;;;1.42;0.95;;;7.50;99.90;;;;;;5011830;28;20104;-85
2021/12/25 07:19:59;;;;;;;0.17;0.17;;;7.50;99.90;;;;;;5012501;28;20044;-82
2021/12/25 07:22:25;;;;;;;0.43;0.43;;;7.50;99.90;;;;;;5012802;28;20041;-82
2021/12/25 07:24:51;;;;;;;0.60;0.60;;;7.40;99.90;;;;;;5012542;28;20026;-82
2021/12/25 07:27:16;;;;;;;0.77;0.77;;;7.50;99.90;;;;;;5012204;28;20587;-86
2021/12/25 07:29:42;;;;;;;0.13;0.13;;;7.40;99.90;;;;;;5012249;28;20080;-86
2021/12/25 07:32:08;;;;;;;0.45;0.45;;;7.40;99.90;;;;;;5011066;28;20030;-86
2021/12/25 07:34:34;;;;;;;0.32;0.32;;;7.40;99.90;;;;;;5012279;28;20141;-86
2021/12/25 07:37:00;;;;;;;0.70;0.70;;;7.30;99.90;;;;;;5012218;28;20098;-86
2021/12/25 07:39:26;;;;;;;1.90;0.88;;;7.30;99.90;;;;;;5014058;28;20033;-86
2021/12/25 07:41:52;;;;;;;6.13;1.55;;;7.30;99.90;;;;;;5016176;28;20060;-86
2021/12/25 07:44:17;;;;;;;0.40;0.40;;;7.30;99.90;;;;;;4996413;28;20056;-87
2021/12/25 07:46:45;;;;;;;1.17;0.95;;;7.30;99.90;;;;;;4998393;28;20034;-86
2021/12/25 07:49:21;;;;;;;2.38;1.50;;;7.30;99.90;;;;;;5015438;28;20022;-82
2021/12/25 07:51:48;;;;;;;0.25;0.25;;;7.30;99.90;;;;;;5015840;28;20496;-82
2021/12/25 07:54:14;;;;;;;0.10;0.10;;;7.30;99.90;;;;;;5015133;28;20432;-87
2021/12/25 07:56:40;;;;;;;0.80;0.77;;;7.30;99.90;;;;;;5015951;28;20033;-86
2021/12/25 07:59:06;;;;;;;0.20;0.20;;;7.30;99.90;;;;;;5014162;28;20385;-87
2021/12/25 08:01:34;;;;;;;0.43;0.43;;;7.30;99.90;;;;;;5015570;28;20485;-83
2021/12/25 08:04:01;;;;;;;0.57;0.57;;;7.30;99.90;;;;;;5015653;28;20045;-82
2021/12/25 08:06:27;;;;;;;4.13;0.75;;;7.30;99.90;;;;;;5015531;28;20033;-87
2021/12/25 08:08:56;;;;;;;0.15;0.15;;;7.20;99.90;;;;;;5013935;28;20034;-87
2021/12/25 08:11:22;;;;;;;1.45;0.80;;;7.30;99.90;;;;;;5015511;28;20037;-87
2021/12/25 08:13:48;;;;;;;0.52;0.52;;;7.30;99.90;;;;;;5015484;28;20045;-87
2021/12/25 08:16:13;;;;;;;1.20;0.90;;;7.30;99.90;;;;;;5015320;28;20478;-87
2021/12/25 08:18:39;;;;;;;0.28;0.28;;;7.30;99.90;;;;;;5015400;28;20022;-87
2021/12/25 08:21:05;;;;;;;3.78;0.95;;;7.30;99.90;;;;;;5014747;28;20057;-87
2021/12/25 08:23:32;;;;;;;0.00;0.00;;;7.40;99.90;;;;;;5015382;28;20026;-87
2021/12/25 08:25:59;;;;;;;1.23;0.60;;;7.30;99.90;;;;;;5015420;28;20045;-87
2021/12/25 08:28:25;;;;;;;0.50;0.50;;;7.30;99.90;;;;;;5014902;28;20054;-82
2021/12/25 08:30:50;;;;;;;0.73;0.73;;;7.40;99.90;;;;;;5015003;28;20041;-83
2021/12/25 08:33:16;;;;;;;0.13;0.13;;;7.40;99.90;;;;;;5014442;28;20025;-87
2021/12/25 08:35:42;;;;;;;0.32;0.32;;;7.40;99.90;;;;;;5013283;28;20089;-87
2021/12/25 08:38:11;;;;;;;0.38;0.38;;;7.50;99.90;;;;;;5014905;28;20049;-87
2021/12/25 08:40:40;;;;;;;0.52;0.20;;;7.50;99.90;;;;;;5015147;28;20036;-83
2021/12/25 08:43:07;;;;;;;0.00;0.00;;;7.50;99.90;;;;;;5004840;28;20397;-83
2021/12/25 08:48:08;;;;;;;0.28;0.28;;;7.70;99.90;;;;;;5009171;28;20391;-87
2021/12/25 08:50:34;;;;;;;0.90;0.52;;;7.80;99.90;;;;;;5012015;28;20038;-87
2021/12/25 08:52:59;;;;;;;0.10;0.10;;;7.90;99.90;;;;;;5014439;28;20374;-86
2021/12/25 08:55:25;;;;;;;0.65;0.65;;;7.90;99.90;;;;;;5014955;28;20052;-83
2021/12/25 08:57:51;;;;;;;1.45;1.35;;;8.00;99.90;;;;;;5013023;28;20033;-86
2021/12/25 09:00:19;;;;;;;1.90;1.75;;;8.00;99.90;;;;;;5014495;28;20097;-87
2021/12/25 09:02:45;;;;;;;0.15;0.15;;;8.10;99.90;;;;;;5014556;28;20029;-86
2021/12/25 09:05:11;;;;;;;2.10;1.65;;;8.10;99.90;;;;;;5014092;28;20109;-86
2021/12/25 09:07:36;;;;;;;0.00;0.00;;;8.20;99.90;;;;;;5014781;28;20113;-86
2021/12/25 09:10:03;;;;;;;0.43;0.43;;;8.20;99.90;;;;;;5012606;28;20022;-83
2021/12/25 09:12:29;;;;;;;1.95;0.63;;;8.20;99.90;;;;;;5014469;28;20021;-86
2021/12/25 09:14:55;;;;;;;0.60;0.60;;;8.20;99.90;;;;;;5014210;28;20049;-86
2021/12/25 09:17:20;;;;;;;3.30;1.23;;;8.30;99.90;;;;;;5014190;28;20109;-86
2021/12/25 09:19:46;;;;;;;0.43;0.43;;;8.30;99.90;;;;;;5013387;28;20026;-83
2021/12/25 09:22:13;;;;;;;1.10;1.00;;;8.40;99.90;;;;;;5014118;28;20029;-83
2021/12/25 09:24:39;;;;;;;0.15;0.15;;;8.50;99.90;;;;;;5012874;28;20034;-85
2021/12/25 09:27:05;;;;;;;0.70;0.57;;;8.50;99.90;;;;;;5013792;28;20045;-86
2021/12/25 09:29:31;;;;;;;0.68;0.68;;;8.50;99.90;;;;;;5013991;28;20091;-85
2021/12/25 09:31:57;;;;;;;1.55;0.65;;;8.60;99.90;;;;;;5014088;28;20020;-86
2021/12/25 09:34:23;;;;;;;0.45;0.40;;;8.70;99.90;;;;;;5013491;28;20508;-83
2021/12/25 09:36:49;;;;;;;0.17;0.17;;;8.70;99.90;;;;;;5014021;28;20022;-84
2021/12/25 09:39:15;;;;;;;0.10;0.10;;;8.80;99.90;;;;;;5013816;28;20485;-86
2021/12/25 09:41:40;;;;;;;0.55;0.55;;;8.80;99.90;;;;;;5013855;28;20113;-85
2021/12/25 09:44:06;;;;;;;0.75;0.75;;;8.90;99.90;;;;;;5013600;28;20025;-86
2021/12/25 09:46:32;;;;;;;1.63;0.98;;;8.90;99.90;;;;;;5013678;28;20018;-83
2021/12/25 09:48:59;;;;;;;0.98;0.80;;;8.90;99.90;;;;;;5013219;28;20032;-82
2021/12/25 09:51:24;;;;;;;0.38;0.38;;;8.90;99.90;;;;;;5013396;28;20124;-85
2021/12/25 09:53:59;;;;;;;0.10;0.10;;;9.00;99.90;;;;;;5012117;28;20057;-85
2021/12/25 09:56:29;;;;;;;0.50;0.50;;;9.10;99.90;;;;;;5013482;28;20440;-86
2021/12/25 09:58:55;;;;;;;0.47;0.47;;;9.20;99.90;;;;;;5013583;28;20037;-82
2021/12/25 10:01:37;;;;;;;1.58;0.50;;;9.20;99.90;;;;;;5012515;28;20076;-87
2021/12/25 10:04:04;;;;;;;0.10;0.05;;;9.20;99.90;;;;;;5013380;28;20022;-83
2021/12/25 10:06:34;;;;;;;0.63;0.63;;;9.30;99.90;;;;;;5013444;28;20432;-83
2021/12/25 10:09:17;;;;;;;0.10;0.10;;;9.50;99.90;;;;;;5013186;28;20041;-85
2021/12/25 10:12:03;;;;;;;0.40;0.40;;;9.60;99.90;;;;;;5009902;28;20037;-82
2021/12/25 10:14:29;;;;;;;0.10;0.10;;;9.60;99.90;;;;;;5013283;28;20058;-82
2021/12/25 10:16:55;;;;;;;0.15;0.15;;;9.70;99.90;;;;;;5012891;28;20401;-82
2021/12/25 10:19:26;;;;;;;0.40;0.40;;;9.70;99.90;;;;;;5012900;28;20105;-82
2021/12/25 10:22:22;;;;;;;0.10;0.10;;;9.80;99.90;;;;;;5013072;28;20100;-86
2021/12/25 10:25:10;;;;;;;0.63;0.63;;;9.80;99.90;;;;;;5008638;28;20108;-83
2021/12/25 10:27:45;;;;;;;0.30;0.30;;;9.80;99.90;;;;;;4993357;28;20100;-83
2021/12/25 10:30:11;;;;;;;0.30;0.30;;;9.90;99.90;;;;;;4993194;28;20023;-85
2021/12/25 10:32:39;;;;;;;0.65;0.65;;;9.90;99.90;;;;;;4992996;28;20058;-82
2021/12/25 10:35:19;;;;;;;0.25;0.20;;;9.90;99.90;;;;;;4993392;28;20029;-83
2021/12/25 10:37:45;;;;;;;0.17;0.17;;;10.00;99.90;;;;;;4993176;28;20477;-83
2021/12/25 10:40:33;;;;;;;0.00;0.00;;;10.20;99.90;;;;;;4993146;28;20034;-86
2021/12/25 10:43:02;;;;;;;1.80;1.23;;;10.30;99.90;;;;;;5002219;28;20033;-87
2021/12/25 10:45:31;;;;;;;0.47;0.47;;;10.40;99.90;;;;;;5012816;28;20453;-87
2021/12/25 10:48:06;;;;;;;1.35;1.13;;;10.50;99.90;;;;;;5012628;28;20033;-86
2021/12/25 10:50:38;;;;;;;0.40;0.22;;;10.60;99.90;;;;;;5012121;28;20566;-83
2021/12/25 10:53:32;;;;;;;0.73;0.70;;;10.70;99.90;;;;;;5012519;28;20387;-87
2021/12/25 10:56:10;;;;;;;0.80;0.80;;;10.90;99.90;;;;;;5012480;28;20481;-85
2021/12/25 10:58:37;;;;;;;0.13;0.13;;;11.10;99.90;;;;;;5012739;28;20019;-87
2021/12/25 11:01:05;;;;;;;2.75;0.35;;;11.20;99.90;;;;;;5012394;28;20030;-87
2021/12/25 11:03:34;;;;;;;0.30;0.30;;;11.30;99.90;;;;;;5012541;28;20068;-83
2021/12/25 11:06:04;;;;;;;0.20;0.20;;;11.50;99.90;;;;;;5012518;28;20033;-82
2021/12/25 11:08:30;;;;;;;0.90;0.63;;;11.70;99.90;;;;;;5012511;28;20030;-87
2021/12/25 11:11:06;;;;;;;3.17;0.65;;;11.70;99.90;;;;;;5011322;28;20878;-86
2021/12/25 11:13:42;;;;;;;0.55;0.55;;;11.60;99.90;;;;;;5012937;28;20026;-86
2021/12/25 11:21:43;;;;;;;0.90;0.43;;;11.60;99.90;;;;;;5016458;28;20128;-87
2021/12/25 11:24:09;;;;;;;0.20;0.20;;;11.90;99.90;;;;;;5016436;28;20026;-86
2021/12/25 11:26:36;;;;;;;0.65;0.65;;;12.10;99.90;;;;;;5016054;28;20092;-85
2021/12/25 11:29:03;;;;;;;1.45;0.40;;;12.20;99.90;;;;;;5016168;28;20117;-87
2021/12/25 11:31:30;;;;;;;1.80;0.40;;;12.20;99.90;;;;;;5016324;28;20037;-82
2021/12/25 11:33:57;;;;;;;0.28;0.28;;;12.30;99.90;;;;;;5016203;28;20025;-86
2021/12/25 11:36:22;;;;;;;0.00;0.00;;;12.40;99.90;;;;;;5016051;28;20025;-87
2021/12/25 11:38:50;;;;;;;1.65;0.50;;;12.30;99.90;;;;;;5016093;28;20037;-86
2021/12/25 11:41:16;;;;;;;0.43;0.43;;;12.40;99.90;;;;;;5016105;28;20085;-82
2021/12/25 11:43:46;;;;;;;0.60;0.30;;;12.60;99.90;;;;;;5015943;28;20598;-87
2021/12/25 11:46:15;;;;;;;5.85;2.47;;;12.70;99.90;;;;;;5015990;28;20037;-81
2021/12/25 11:48:41;;;;;;;1.17;0.17;;;12.70;99.90;;;;;;5014468;28;20527;-87
2021/12/25 11:51:28;;;;;;;1.95;0.82;;;12.90;99.90;;;;;;5015610;28;20109;-86
2021/12/25 11:56:31;;;;;;;0.10;0.10;;;12.70;99.90;;;;;;5015734;28;20489;-82
2021/12/25 11:59:01;;;;;;;0.40;0.40;;;12.60;99.90;;;;;;5015524;28;20021;-87
2021/12/25 12:01:43;;;;;;;3.08;0.25;;;12.60;99.90;;;;;;5015731;28;20467;-87
2021/12/25 12:04:11;;;;;;;0.35;0.28;;;12.80;99.90;;;;;;5015505;28;20041;-87
2021/12/25 12:06:46;;;;;;;4.63;0.35;;;12.80;99.90;;;;;;5015598;28;20037;-86
2021/12/25 12:09:27;;;;;;;4.13;1.85;;;12.90;99.90;;;;;;5013718;28;20062;-87
2021/12/25 12:12:09;;;;;;;0.43;0.20;;;12.70;99.90;;;;;;5014067;28;20029;-82
2021/12/25 12:14:35;;;;;;;0.95;0.77;;;12.90;99.90;;;;;;5015480;28;20022;-87
2021/12/25 12:17:06;;;;;;;3.88;1.30;;;13.20;99.90;;;;;;5015416;28;20048;-87
2021/12/25 12:19:32;;;;;;;0.15;0.15;;;13.40;99.90;;;;;;5015063;28;20033;-86
2021/12/25 12:22:00;;;;;;;0.10;0.10;;;13.40;99.90;;;;;;5015286;28;20022;-82
2021/12/25 12:27:29;;;;;;;0.05;0.05;;;12.90;99.90;;;;;;5014239;28;20543;-86
2021/12/25 12:29:54;;;;;;;8.23;0.98;;;12.70;99.90;;;;;;5013919;28;20041;-86
2021/12/25 12:32:20;;;;;;;0.00;0.00;;;12.70;99.90;;;;;;5015040;28;20034;-86
2021/12/25 12:34:47;;;;;;;0.00;0.00;;;12.70;99.90;;;;;;5014973;28;20025;-82
2021/12/25 12:37:16;;;;;;;2.50;1.55;;;12.90;99.90;;;;;;5015189;28;20029;-86
2021/12/25 12:39:57;;;;;;;59.10;2.90;;;12.90;99.90;;;;;;5014975;28;20552;-83
2021/12/25 12:42:46;;;;;;;0.40;0.30;;;12.90;99.90;;;;;;5011927;28;20061;-86
2021/12/25 12:45:15;;;;;;;0.47;0.47;;;12.90;99.90;;;;;;4995231;28;20106;-86
2021/12/25 12:48:01;;;;;;;0.40;0.40;;;12.80;99.90;;;;;;5006061;28;20036;-82
2021/12/25 12:50:33;;;;;;;0.20;0.20;;;12.80;99.90;;;;;;5014081;28;20038;-82
2021/12/25 12:53:01;;;;;;;0.25;0.25;;;12.70;99.90;;;;;;5014634;28;20400;-86
2021/12/25 12:55:30;;;;;;;40.80;1.10;;;12.70;99.90;;;;;;5013201;28;20405;-83
2021/12/25 12:58:09;;;;;;;9.32;2.15;;;12.70;99.90;;;;;;5014613;28;20025;-81
2021/12/25 13:00:35;;;;;;;0.00;0.00;;;12.60;99.90;;;;;;5012874;28;20034;-82
2021/12/25 13:03:01;;;;;;;0.00;0.00;;;12.60;99.90;;;;;;5014461;28;20018;-81
2021/12/25 13:05:35;;;;;;;0.30;0.30;;;12.50;99.90;;;;;;5014377;28;20026;-86
2021/12/25 13:08:16;;;;;;;0.00;0.00;;;12.40;99.90;;;;;;5014999;28;20436;-86
2021/12/25 13:10:51;;;;;;;1.75;1.58;;;12.30;99.90;;;;;;5013474;28;20030;-86
2021/12/25 13:13:24;;;;;;;0.32;0.22;;;12.30;99.90;;;;;;5012715;28;20022;-86
2021/12/25 13:15:58;;;;;;;0.80;0.80;;;12.30;99.90;;;;;;5014253;28;20022;-81
2021/12/25 13:18:36;;;;;;;5.70;1.05;;;12.40;99.90;;;;;;5013999;28;20018;-86
2021/12/25 13:21:06;;;;;;;0.80;0.80;;;12.40;99.90;;;;;;5013974;28;20034;-85
2021/12/25 13:23:42;;;;;;;1.65;0.35;;;12.60;99.90;;;;;;5014282;28;20032;-86
2021/12/25 13:26:09;;;;;;;0.03;0.03;;;12.90;99.90;;;;;;5013919;28;20026;-81
2021/12/25 13:28:38;;;;;;;0.30;0.30;;;12.90;99.90;;;;;;5014089;28;20041;-82
2021/12/25 13:31:12;;;;;;;1.27;0.98;;;12.90;99.90;;;;;;5011825;28;20088;-86
2021/12/25 13:33:46;;;;;;;0.08;0.08;;;12.80;99.90;;;;;;5013954;28;20018;-85
2021/12/25 13:36:17;;;;;;;0.20;0.10;;;12.90;99.90;;;;;;5013620;28;20454;-86
2021/12/25 13:39:08;;;;;;;2.25;2.00;;;12.90;99.90;;;;;;5014195;28;20029;-86
2021/12/25 13:41:41;;;;;;;0.20;0.20;;;12.80;99.90;;;;;;5010724;28;20072;-81
2021/12/25 13:44:09;;;;;;;;;;;12.80;99.90;;;;;;5014048;28;20028;-85
2021/12/25 13:46:49;;;;;;;1.65;0.80;;;12.90;99.90;;;;;;5013701;28;20004;-85
2021/12/25 13:49:25;;;;;;;0.05;0.05;;;12.90;99.90;;;;;;5013372;28;20018;-86
2021/12/25 13:51:51;;;;;;;0.50;0.17;;;12.90;99.90;;;;;;5013970;28;20080;-85
2021/12/25 13:54:18;;;;;;;2.70;0.77;;;12.90;99.90;;;;;;5012494;28;20037;-81
2021/12/25 13:56:49;;;;;;;0.77;0.65;;;12.90;99.90;;;;;;5013450;28;20026;-86
2021/12/25 13:59:15;;;;;;;1.17;0.40;;;12.80;99.90;;;;;;5013451;28;20030;-86
2021/12/25 14:01:41;;;;;;;0.40;0.40;;;12.60;99.90;;;;;;5013704;28;20034;-86
2021/12/25 14:04:11;;;;;;;26.40;0.47;;;12.50;99.90;;;;;;5013340;28;20493;-86
2021/12/25 14:06:38;;;;;;;0.55;0.55;;;12.50;99.90;;;;;;5013415;28;20022;-81
2021/12/25 14:09:08;;;;;;;0.35;0.35;;;12.40;99.90;;;;;;5012855;28;20033;-81
2021/12/25 14:11:33;;;;;;;0.10;0.10;;;12.50;99.90;;;;;;5013557;28;20025;-86
2021/12/25 14:14:05;;;;;;;0.08;0.08;;;12.50;99.90;;;;;;5011920;28;20084;-85
2021/12/25 14:16:31;;;;;;;0.10;0.10;;;12.50;99.90;;;;;;5013401;28;20033;-86
2021/12/25 14:18:57;;;;;;;1.20;0.85;;;12.60;99.90;;;;;;5011544;28;20037;-81
2021/12/25 14:21:24;;;;;;;8.20;0.55;;;12.60;99.90;;;;;;4999398;28;20409;-81
2021/12/25 14:24:03;;;;;;;0.10;0.10;;;12.60;99.90;;;;;;4993646;28;20026;-86
2021/12/25 14:26:29;;;;;;;0.50;0.50;;;12.60;99.90;;;;;;5003925;28;20033;-81
2021/12/25 14:28:55;;;;;;;1.60;0.85;;;12.60;99.90;;;;;;5011541;28;20053;-85